Home > Products > Valid Products > MTR

000
SAUS45 KTWC 290752
MTRSAD
METAR KSAD 290751Z AUTO 31008KT 10SM CLR 12/M06 A2984 RMK AO2 SLP065
T01171061





000
SAUS45 KTWC 290652
MTRSAD
METAR KSAD 290651Z AUTO 31009KT 10SM CLR 12/M06 A2983 RMK AO2 SLP063
T01221061 402890111





000
SAUS45 KTWC 290552
MTRSAD
METAR KSAD 290551Z AUTO 31008KT 10SM CLR 14/M06 A2981 RMK AO2 SLP059
T01391056 10222 20139 53023





000
SAUS45 KTWC 290452
MTRSAD
METAR KSAD 290451Z AUTO 30011KT 10SM SCT110 16/M04 A2978 RMK AO2
SLP045 T01561044





000
SAUS45 KTWC 290352
MTRSAD
METAR KSAD 290351Z AUTO 28008KT 10SM FEW120 16/M03 A2977 RMK AO2 PK
WND 29026/0258 SLP044 T01611028





000
SAUS45 KTWC 290252
MTRSAD
METAR KSAD 290251Z AUTO 29019G25KT 10SM CLR 16/M02 A2974 RMK AO2
SLP034 T01611017 53027





000
SAUS45 KTWC 290252
MTRSAD
METAR KSAD 290251Z AUTO 29019G25KT 10SM CLR 16/M02 A2974 RMK AO2
SLP034 T01611017 53027





000
SAUS45 KTWC 290153
MTRSAD
METAR KSAD 290151Z AUTO 28017G25KT 10SM CLR 17/01 A2972 RMK AO2 PK
WND 27034/0110 SLP028 T01720011





000
SAUS45 KTWC 290153
MTRSAD
METAR KSAD 290151Z AUTO 28017G25KT 10SM CLR 17/01 A2972 RMK AO2 PK
WND 27034/0110 SLP028 T01720011





000
SAUS45 KTWC 290052
MTRSAD
METAR KSAD 290051Z AUTO 29019G25KT 10SM BKN110 21/M01 A2967 RMK AO2
PK WND 28030/0007 SLP013 T02061006





000
SAUS45 KTWC 290052
MTRSAD
METAR KSAD 290051Z AUTO 29019G25KT 10SM BKN110 21/M01 A2967 RMK AO2
PK WND 28030/0007 SLP013 T02061006





000
SAUS45 KTWC 282352
MTRSAD
METAR KSAD 282351Z AUTO 27017G27KT 10SM BKN110 22/M02 A2965 RMK AO2
PK WND 27031/2340 SLP005 T02221017 10289 20222 53004





000
SAUS45 KTWC 282252
MTRSAD
METAR KSAD 282251Z AUTO 29020G35KT 10SM CLR 24/M03 A2962 RMK AO2 PK
WND 27035/2244 SLP988 T02441033





000
SAUS45 KTWC 282252
MTRSAD
METAR KSAD 282251Z AUTO 29020G35KT 10SM CLR 24/M03 A2962 RMK AO2 PK
WND 27035/2244 SLP988 T02441033





000
SAUS45 KTWC 282152
MTRSAD
METAR KSAD 282151Z AUTO 24010G20KT 10SM CLR 27/M10 A2962 RMK AO2 PK
WND 27026/2114 WSHFT 2106 SLP985 T02671100





000
SAUS45 KTWC 282152
MTRSAD
METAR KSAD 282151Z AUTO 24010G20KT 10SM CLR 27/M10 A2962 RMK AO2 PK
WND 27026/2114 WSHFT 2106 SLP985 T02671100





000
SAUS45 KTWC 282127
MTRSAD
SPECI KSAD 282126Z AUTO 26013G20KT 10SM CLR 27/M12 A2963 RMK AO2 PK
WND 27026/2114 WSHFT 2106 T02671117





000
SAUS45 KTWC 282052
MTRSAD
METAR KSAD 282051Z AUTO 23013G19KT 10SM CLR 28/M12 A2964 RMK AO2 PK
WND 19031/2006 SLP990 T02781117 56022





000
SAUS45 KTWC 281953
MTRSAD
METAR KSAD 281951Z AUTO 21025G33KT 10SM CLR 28/M13 A2966 RMK AO2 PK
WND 22033/1951 SLP995 T02781128





000
SAUS45 KTWC 281953
MTRSAD
METAR KSAD 281951Z AUTO 21025G33KT 10SM CLR 28/M13 A2966 RMK AO2 PK
WND 22033/1951 SLP995 T02781128





000
SAUS45 KTWC 281852
MTRSAD
METAR KSAD 281851Z AUTO 29005KT 10SM CLR 25/M13 A2968 RMK AO2 SLP005
T02501128





000
SAUS45 KTWC 281753
MTRSAD
METAR KSAD 281751Z AUTO VRB03KT 10SM CLR 24/M11 A2971 RMK AO2 SLP018
T02391106 10244 20111 58007





000
SAUS45 KTWC 281652
MTRSAD
METAR KSAD 281651Z AUTO 20014KT 10SM CLR 23/M08 A2973 RMK AO2 SLP022
T02281083





000
SAUS45 KTWC 281552
MTRSAD
METAR KSAD 281551Z AUTO VRB05G15KT 10SM CLR 21/M07 A2973 RMK AO2
SLP026 T02111072





000
SAUS45 KTWC 281452
MTRSAD
METAR KSAD 281451Z AUTO 09006KT 10SM CLR 20/M07 A2973 RMK AO2 SLP026
T02001067 52010





000
SAUS45 KTWC 281352
MTRSAD
METAR KSAD 281351Z AUTO 08006KT 10SM CLR 17/M06 A2973 RMK AO2 SLP026
T01721061





000
SAUS45 KTWC 281253
MTRSAD
METAR KSAD 281251Z AUTO 09006KT 10SM CLR 13/M06 A2971 RMK AO2 SLP023
T01331056





000
SAUS45 KTWC 281153
MTRSAD
METAR KSAD 281151Z AUTO 36005KT 10SM CLR 13/M05 A2970 RMK AO2 SLP019
T01331050 10200 20133 51005





000
SAUS45 KTWC 281153
MTRSAD
METAR KSAD 281151Z AUTO 36005KT 10SM CLR 13/M05 A2970 RMK AO2 SLP019
T01331050 10200 20133 51005





000
SAUS45 KTWC 281053
MTRSAD
METAR KSAD 281051Z AUTO 01005KT 10SM CLR 16/M05 A2970 RMK AO2 SLP015
T01561050





000
SAUS45 KTWC 280952
MTRSAD
METAR KSAD 280951Z AUTO 05005KT 10SM CLR 16/M06 A2969 RMK AO2 SLP015
T01611061





000
SAUS45 KTWC 280852
MTRSAD
METAR KSAD 280851Z AUTO 16006KT 10SM CLR 18/M06 A2969 RMK AO2 SLP011
T01781056 58008





000
SAUS45 KTWC 280752
MTRSAD
METAR KSAD 280751Z AUTO 00000KT 10SM CLR 19/M06 A2971 RMK AO2 SLP016
T01941061





000
SAUS45 KTWC 280653
MTRSAD
METAR KSAD 280651Z AUTO 00000KT 10SM CLR 20/M07 A2971 RMK AO2 SLP019
T02001067 402560061





000
SAUS45 KTWC 280552
MTRSAD
METAR KSAD 280551Z AUTO 34006KT 10SM CLR 19/M07 A2971 RMK AO2 SLP022
T01941067 10256 20194 50003





000
SAUS45 KTWC 280552
MTRSAD
METAR KSAD 280551Z AUTO 34006KT 10SM CLR 19/M07 A2971 RMK AO2 SLP022
T01941067 10256 20194 50003





000
SAUS45 KTWC 280452
MTRSAD
METAR KSAD 280451Z AUTO 00000KT 10SM CLR 20/M07 A2972 RMK AO2 SLP024
T02001067





000
SAUS45 KTWC 280352
MTRSAD
METAR KSAD 280351Z AUTO 32010KT 10SM CLR 21/M07 A2970 RMK AO2 SLP020
T02111072





000
SAUS45 KTWC 280252
MTRSAD
METAR KSAD 280251Z AUTO 32009KT 10SM CLR 22/M07 A2970 RMK AO2 SLP023
T02171067 53001





000
SAUS45 KTWC 280152
MTRSAD
METAR KSAD 280151Z AUTO 31012KT 10SM CLR 23/M08 A2969 RMK AO2 SLP020
T02281078





000
SAUS45 KTWC 280052
MTRSAD
METAR KSAD 280051Z AUTO 31011KT 10SM CLR 24/M06 A2968 RMK AO2 SLP020
T02391061





000
SAUS45 KTWC 272353
MTRSAD
METAR KSAD 272351Z AUTO 33008KT 10SM CLR 26/M07 A2970 RMK AO2 SLP024
T02561067 10256 20200 56024





000
SAUS45 KTWC 272353
MTRSAD
METAR KSAD 272351Z AUTO 33008KT 10SM CLR 26/M07 A2970 RMK AO2 SLP024
T02561067 10256 20200 56024





000
SAUS45 KTWC 272252
MTRSAD
METAR KSAD 272251Z AUTO 30006KT 10SM CLR 25/M06 A2971 RMK AO2 SLP025
T02501061





000
SAUS45 KTWC 272152
MTRSAD
METAR KSAD 272151Z AUTO 00000KT 10SM CLR 24/M06 A2974 RMK AO2 SLP038
T02391061





000
SAUS45 KTWC 272152
MTRSAD
METAR KSAD 272151Z AUTO 00000KT 10SM CLR 24/M06 A2974 RMK AO2 SLP038
T02391061





000
SAUS45 KTWC 272053
MTRSAD
METAR KSAD 272051Z AUTO 10SM CLR 23/M05 A2978 RMK AO2 SLP049
T02331050 58030





000
SAUS45 KTWC 271953
MTRSAD
METAR KSAD 271951Z AUTO VRB03KT 10SM CLR 23/M04 A2981 RMK AO2 SLP060
T02281044





000
SAUS45 KTWC 271852
MTRSAD
METAR KSAD 271851Z AUTO VRB04KT 10SM CLR 22/M04 A2984 RMK AO2 SLP074
T02171044





000
SAUS45 KTWC 271752
MTRSAD
METAR KSAD 271751Z AUTO VRB04KT 10SM CLR 20/M04 A2987 RMK AO2 SLP084
T02001039 10206 20061 58012





000
SAUS45 KTWC 271752
MTRSAD
METAR KSAD 271751Z AUTO VRB04KT 10SM CLR 20/M04 A2987 RMK AO2 SLP084
T02001039 10206 20061 58012





000
SAUS45 KTWC 271652
MTRSAD
METAR KSAD 271651Z AUTO 00000KT 10SM CLR 18/M04 A2990 RMK AO2 SLP090
T01831039





000
SAUS45 KTWC 271552
MTRSAD
METAR KSAD 271551Z AUTO VRB04KT 10SM CLR 17/M04 A2990 RMK AO2 SLP095
T01671039





000
SAUS45 KTWC 271452
MTRSAD
METAR KSAD 271451Z AUTO 11005KT 10SM CLR 13/M04 A2991 RMK AO2 SLP101
T01281044 51004





000
SAUS45 KTWC 271352
MTRSAD
METAR KSAD 271351Z AUTO 12004KT 10SM CLR 11/M05 A2991 RMK AO2 SLP101
T01061050





000
SAUS45 KTWC 271252
MTRSAD
METAR KSAD 271251Z AUTO 12005KT 10SM CLR 07/M06 A2991 RMK AO2 SLP105
T00671061





000
SAUS45 KTWC 271252
MTRSAD
METAR KSAD 271251Z AUTO 12005KT 10SM CLR 07/M06 A2991 RMK AO2 SLP105
T00671061





000
SAUS45 KTWC 271153
MTRSAD
METAR KSAD 271151Z AUTO 00000KT 10SM CLR 07/M06 A2990 RMK AO2 SLP097
7//// T00671061 10128 20067 55000





000
SAUS45 KTWC 271052
MTRSAD
METAR KSAD 271051Z AUTO 19004KT 10SM CLR 09/M06 A2990 RMK AO2 SLP094
T00891056





000
SAUS45 KTWC 270952
MTRSAD
METAR KSAD 270951Z AUTO 10005KT 10SM CLR 08/M06 A2990 RMK AO2 SLP094
T00831056





000
SAUS45 KTWC 270852
MTRSAD
METAR KSAD 270851Z AUTO 29005KT 10SM CLR 11/M06 A2990 RMK AO2 SLP093
T01061056 58008





000
SAUS45 KTWC 270752
MTRSAD
METAR KSAD 270751Z AUTO 30006KT 10SM CLR 11/M06 A2991 RMK AO2 SLP099
T01111056





000
SAUS45 KTWC 270653
MTRSAD
METAR KSAD 270651Z AUTO 29009KT 10SM CLR 12/M06 A2993 RMK AO2 SLP104
T01171056 402220111





000
SAUS45 KTWC 270552
MTRSAD
METAR KSAD 270551Z AUTO 28009KT 10SM CLR 13/M06 A2992 RMK AO2 SLP102
T01281056 10217 20128 50011





000
SAUS45 KTWC 270552
MTRSAD
METAR KSAD 270551Z AUTO 28009KT 10SM CLR 13/M06 A2992 RMK AO2 SLP102
T01281056 10217 20128 50011





000
SAUS45 KTWC 270452
MTRSAD
METAR KSAD 270451Z AUTO 31008KT 10SM CLR 16/M06 A2993 RMK AO2 SLP103
T01561056





000
SAUS45 KTWC 270352
MTRSAD
METAR KSAD 270351Z AUTO 32013KT 10SM CLR 17/M06 A2991 RMK AO2 SLP096
T01671061





000
SAUS45 KTWC 270253
MTRSAD
METAR KSAD 270251Z AUTO 33011KT 10SM CLR 17/M07 A2989 RMK AO2 SLP090
T01721072 53012





000
SAUS45 KTWC 270153
MTRSAD
METAR KSAD 270151Z AUTO 31015KT 10SM CLR 19/M07 A2987 RMK AO2 SLP084
T01891067





000
SAUS45 KTWC 270052
MTRSAD
METAR KSAD 270051Z AUTO 31020G24KT 10SM CLR 20/M07 A2986 RMK AO2
SLP079 T02001067





000
SAUS45 KTWC 270052
MTRSAD
METAR KSAD 270051Z AUTO 31020G24KT 10SM CLR 20/M07 A2986 RMK AO2
SLP079 T02001067





000
SAUS45 KTWC 262352
MTRSAD
METAR KSAD 262351Z AUTO 30016G23KT 10SM CLR 22/M07 A2985 RMK AO2 PK
WND 30028/2255 SLP074 T02171067 10222 20183 55000





000
SAUS45 KTWC 262352
MTRSAD
METAR KSAD 262351Z AUTO 30016G23KT 10SM CLR 22/M07 A2985 RMK AO2 PK
WND 30028/2255 SLP074 T02171067 10222 20183 55000





000
SAUS45 KTWC 262252
MTRSAD
METAR KSAD 262251Z AUTO 31014G27KT 10SM CLR 22/M07 A2984 RMK AO2 PK
WND 31027/2243 SLP070 T02221072





000
SAUS45 KTWC 262153
MTRSAD
METAR KSAD 262151Z AUTO 29018G25KT 10SM CLR 22/M08 A2984 RMK AO2 PK
WND 32031/2108 SLP071 T02221078





000
SAUS45 KTWC 262053
MTRSAD
METAR KSAD 262051Z AUTO 30015G25KT 10SM CLR 22/M07 A2985 RMK AO2 PK
WND 32032/1959 SLP075 T02171072 56007





000
SAUS45 KTWC 261953
MTRSAD
METAR KSAD 261951Z AUTO 31022G29KT 10SM CLR 21/M08 A2985 RMK AO2 PK
WND 32029/1944 SLP075 T02061078





000
SAUS45 KTWC 261953
MTRSAD
METAR KSAD 261951Z AUTO 31022G29KT 10SM CLR 21/M08 A2985 RMK AO2 PK
WND 32029/1944 SLP075 T02061078





000
SAUS45 KTWC 261852
MTRSAD
METAR KSAD 261851Z AUTO 32018G26KT 10SM CLR 21/M09 A2986 RMK AO2 PK
WND 33026/1850 SLP077 T02061089





000
SAUS45 KTWC 261753
MTRSAD
METAR KSAD 261751Z AUTO 31016G28KT 10SM CLR 19/M09 A2987 RMK AO2 PK
WND 31028/1745 SLP082 6//// T01891094 10189 20111 51012





000
SAUS45 KTWC 261653
MTRSAD
METAR KSAD 261651Z AUTO 32016G21KT 10SM CLR 18/M10 A2987 RMK AO2
SLP079 T01781100





000
SAUS45 KTWC 261556 COR
MTRSAD
METAR KSAD 261551Z AUTO 31014G26KT 10SM CLR 17/M09 A2985 RMK AO2 PK
WND 31026/1547 SLP075 T01671094





000
SAUS45 KTWC 261556 COR
MTRSAD
METAR KSAD 261551Z AUTO 31014G26KT 10SM CLR 17/M09 A2985 RMK AO2 PK
WND 31026/1547 SLP075 T01671094





000
SAUS45 KTWC 261552
MTRSAD
METAR KSAD 261551Z AUTO 31014G26KT 10SM CLR 17/M09 A2985 RMK AO2 PK
WND 31026/1547 SLP075 T01671094





000
SAUS45 KTWC 261453
MTRSAD
METAR KSAD 261451Z AUTO 31014KT 10SM CLR 15/M08 A2984 RMK AO2 SLP069
6//// T01501078





000
SAUS45 KTWC 261252
MTRSAD
METAR KSAD 261251Z AUTO 10SM FEW050 FEW070 SCT085 12/M02 A2980 RMK
AO2 RAB30E39 SLP057 P0000 T01171022 $





000
SAUS45 KTWC 261152
MTRSAD
METAR KSAD 261151Z AUTO 30010KT 10SM OVC100 13/M12 A2977 RMK AO2
SLP043 T01281122 10161 20111 50006





000
SAUS45 KTWC 261052
MTRSAD
METAR KSAD 261051Z AUTO 30012KT 10SM CLR 11/M12 A2977 RMK AO2 SLP044
T01111117





000
SAUS45 KTWC 260954
MTRSAD
METAR KSAD 260951Z AUTO 31012KT 10SM CLR 13/M10 A2976 RMK AO2 SLP038
T01281100





000
SAUS45 KTWC 260852
MTRSAD
METAR KSAD 260851Z AUTO 32011KT 10SM CLR 13/M15 A2975 RMK AO2 SLP035
T01281150 58004





    US Dept of Commerce
    National Oceanic and Atmospheric Administration
    National Weather Service
    1325 East West Highway
    Silver Spring, MD 20910
    Page Author: NWS Internet Services Team
Disclaimer
Information Quality
Credits
Glossary
Privacy Policy
Freedom of Information Act (FOIA)
About Us
Career Opportunities